sensor_id;sensor_type;location;lat;lon;timestamp;P1;durP1;ratioP1;P2;durP2;ratioP2
42108;SDS011;27765;51.228;7.626;2022-08-03T00:00:40;3.67;;;2.70;;
42108;SDS011;27765;51.228;7.626;2022-08-03T00:03:26;3.17;;;2.65;;
42108;SDS011;27765;51.228;7.626;2022-08-03T00:06:11;4.32;;;3.10;;
42108;SDS011;27765;51.228;7.626;2022-08-03T00:08:57;4.00;;;3.15;;
42108;SDS011;27765;51.228;7.626;2022-08-03T00:11:43;4.57;;;3.00;;
42108;SDS011;27765;51.228;7.626;2022-08-03T00:14:29;4.45;;;3.10;;
42108;SDS011;27765;51.228;7.626;2022-08-03T00:17:15;6.22;;;3.25;;
42108;SDS011;27765;51.228;7.626;2022-08-03T00:20:01;5.60;;;2.65;;
42108;SDS011;27765;51.228;7.626;2022-08-03T00:22:48;5.88;;;3.22;;
42108;SDS011;27765;51.228;7.626;2022-08-03T00:25:34;9.63;;;3.47;;
42108;SDS011;27765;51.228;7.626;2022-08-03T00:28:21;3.72;;;2.97;;
42108;SDS011;27765;51.228;7.626;2022-08-03T00:31:07;5.53;;;2.95;;
42108;SDS011;27765;51.228;7.626;2022-08-03T00:33:53;2.83;;;2.63;;
42108;SDS011;27765;51.228;7.626;2022-08-03T00:36:39;4.00;;;2.60;;
42108;SDS011;27765;51.228;7.626;2022-08-03T00:39:25;3.88;;;2.90;;
42108;SDS011;27765;51.228;7.626;2022-08-03T00:42:11;4.40;;;2.55;;
42108;SDS011;27765;51.228;7.626;2022-08-03T00:44:57;4.00;;;2.63;;
42108;SDS011;27765;51.228;7.626;2022-08-03T00:47:43;3.40;;;2.28;;
42108;SDS011;27765;51.228;7.626;2022-08-03T00:50:30;4.50;;;2.75;;
42108;SDS011;27765;51.228;7.626;2022-08-03T00:53:19;4.15;;;2.60;;
42108;SDS011;27765;51.228;7.626;2022-08-03T00:56:05;3.78;;;2.63;;
42108;SDS011;27765;51.228;7.626;2022-08-03T00:58:51;5.15;;;2.53;;
42108;SDS011;27765;51.228;7.626;2022-08-03T01:01:41;3.88;;;2.60;;
42108;SDS011;27765;51.228;7.626;2022-08-03T01:04:27;8.13;;;2.88;;
42108;SDS011;27765;51.228;7.626;2022-08-03T01:10:36;4.15;;;2.92;;
42108;SDS011;27765;51.228;7.626;2022-08-03T01:13:36;3.58;;;2.40;;
42108;SDS011;27765;51.228;7.626;2022-08-03T01:16:58;6.38;;;2.85;;
42108;SDS011;27765;51.228;7.626;2022-08-03T01:19:53;4.22;;;2.90;;
42108;SDS011;27765;51.228;7.626;2022-08-03T01:32:01;8.00;;;3.72;;
42108;SDS011;27765;51.228;7.626;2022-08-03T01:34:58;4.30;;;2.88;;
42108;SDS011;27765;51.228;7.626;2022-08-03T01:37:51;3.20;;;2.90;;
42108;SDS011;27765;51.228;7.626;2022-08-03T01:40:51;4.65;;;2.83;;
42108;SDS011;27765;51.228;7.626;2022-08-03T01:43:39;7.60;;;3.17;;
42108;SDS011;27765;51.228;7.626;2022-08-03T01:46:29;7.07;;;3.55;;
42108;SDS011;27765;51.228;7.626;2022-08-03T01:49:16;6.53;;;3.60;;
42108;SDS011;27765;51.228;7.626;2022-08-03T01:52:02;6.10;;;3.45;;
42108;SDS011;27765;51.228;7.626;2022-08-03T01:54:50;4.65;;;3.45;;
42108;SDS011;27765;51.228;7.626;2022-08-03T01:57:38;7.45;;;3.78;;
42108;SDS011;27765;51.228;7.626;2022-08-03T02:00:27;4.65;;;3.38;;
42108;SDS011;27765;51.228;7.626;2022-08-03T02:03:15;6.85;;;3.33;;
42108;SDS011;27765;51.228;7.626;2022-08-03T02:06:02;5.85;;;3.90;;
42108;SDS011;27765;51.228;7.626;2022-08-03T02:08:49;5.68;;;4.05;;
42108;SDS011;27765;51.228;7.626;2022-08-03T02:11:37;6.22;;;3.55;;
42108;SDS011;27765;51.228;7.626;2022-08-03T02:14:23;4.85;;;3.22;;
42108;SDS011;27765;51.228;7.626;2022-08-03T02:17:10;5.57;;;3.90;;
42108;SDS011;27765;51.228;7.626;2022-08-03T02:19:58;4.22;;;3.20;;
42108;SDS011;27765;51.228;7.626;2022-08-03T02:22:46;7.18;;;4.05;;
42108;SDS011;27765;51.228;7.626;2022-08-03T02:25:34;6.13;;;3.50;;
42108;SDS011;27765;51.228;7.626;2022-08-03T02:28:28;9.25;;;4.65;;
42108;SDS011;27765;51.228;7.626;2022-08-03T02:31:23;9.98;;;4.32;;
42108;SDS011;27765;51.228;7.626;2022-08-03T02:34:13;7.07;;;4.53;;
42108;SDS011;27765;51.228;7.626;2022-08-03T02:37:00;9.93;;;4.57;;
42108;SDS011;27765;51.228;7.626;2022-08-03T02:39:48;13.95;;;5.45;;
42108;SDS011;27765;51.228;7.626;2022-08-03T02:42:37;12.73;;;5.10;;
42108;SDS011;27765;51.228;7.626;2022-08-03T02:45:25;12.80;;;4.93;;
42108;SDS011;27765;51.228;7.626;2022-08-03T02:48:17;11.38;;;4.55;;
42108;SDS011;27765;51.228;7.626;2022-08-03T02:51:09;6.68;;;3.88;;
42108;SDS011;27765;51.228;7.626;2022-08-03T02:53:56;5.95;;;3.75;;
42108;SDS011;27765;51.228;7.626;2022-08-03T02:56:45;5.35;;;3.70;;
42108;SDS011;27765;51.228;7.626;2022-08-03T02:59:32;5.63;;;3.55;;
42108;SDS011;27765;51.228;7.626;2022-08-03T03:02:19;7.55;;;3.80;;
42108;SDS011;27765;51.228;7.626;2022-08-03T03:05:06;8.23;;;3.92;;
42108;SDS011;27765;51.228;7.626;2022-08-03T03:07:54;8.43;;;4.03;;
42108;SDS011;27765;51.228;7.626;2022-08-03T03:10:40;8.65;;;3.95;;
42108;SDS011;27765;51.228;7.626;2022-08-03T03:13:28;6.65;;;3.03;;
42108;SDS011;27765;51.228;7.626;2022-08-03T03:16:16;8.40;;;3.25;;
42108;SDS011;27765;51.228;7.626;2022-08-03T03:19:03;5.72;;;3.60;;
42108;SDS011;27765;51.228;7.626;2022-08-03T03:21:49;4.90;;;2.97;;
42108;SDS011;27765;51.228;7.626;2022-08-03T03:24:36;6.13;;;3.25;;
42108;SDS011;27765;51.228;7.626;2022-08-03T03:27:24;6.28;;;3.50;;
42108;SDS011;27765;51.228;7.626;2022-08-03T03:30:10;6.07;;;2.83;;
42108;SDS011;27765;51.228;7.626;2022-08-03T03:32:57;4.28;;;3.10;;
42108;SDS011;27765;51.228;7.626;2022-08-03T03:35:43;7.00;;;3.30;;
42108;SDS011;27765;51.228;7.626;2022-08-03T03:38:31;6.45;;;3.40;;
42108;SDS011;27765;51.228;7.626;2022-08-03T03:41:18;3.53;;;3.08;;
42108;SDS011;27765;51.228;7.626;2022-08-03T03:44:04;8.25;;;3.45;;
42108;SDS011;27765;51.228;7.626;2022-08-03T03:46:50;7.50;;;4.40;;
42108;SDS011;27765;51.228;7.626;2022-08-03T03:49:36;7.90;;;3.83;;
42108;SDS011;27765;51.228;7.626;2022-08-03T03:52:22;11.30;;;4.30;;
42108;SDS011;27765;51.228;7.626;2022-08-03T03:55:08;15.93;;;5.25;;
42108;SDS011;27765;51.228;7.626;2022-08-03T03:57:54;13.23;;;5.10;;
42108;SDS011;27765;51.228;7.626;2022-08-03T04:00:41;15.13;;;5.20;;
42108;SDS011;27765;51.228;7.626;2022-08-03T04:03:28;20.55;;;7.10;;
42108;SDS011;27765;51.228;7.626;2022-08-03T04:06:14;19.63;;;6.57;;
42108;SDS011;27765;51.228;7.626;2022-08-03T04:09:19;17.52;;;6.60;;
42108;SDS011;27765;51.228;7.626;2022-08-03T04:12:24;13.25;;;5.82;;
42108;SDS011;27765;51.228;7.626;2022-08-03T04:15:12;14.77;;;5.00;;
42108;SDS011;27765;51.228;7.626;2022-08-03T04:17:59;8.85;;;5.03;;
42108;SDS011;27765;51.228;7.626;2022-08-03T04:20:47;10.57;;;5.32;;
42108;SDS011;27765;51.228;7.626;2022-08-03T04:23:37;14.93;;;5.40;;
42108;SDS011;27765;51.228;7.626;2022-08-03T04:26:28;14.93;;;5.68;;
42108;SDS011;27765;51.228;7.626;2022-08-03T04:29:17;11.45;;;5.53;;
42108;SDS011;27765;51.228;7.626;2022-08-03T04:32:05;13.30;;;5.22;;
42108;SDS011;27765;51.228;7.626;2022-08-03T04:34:52;11.60;;;5.63;;
42108;SDS011;27765;51.228;7.626;2022-08-03T04:37:39;10.02;;;4.35;;
42108;SDS011;27765;51.228;7.626;2022-08-03T04:40:38;6.43;;;3.60;;
42108;SDS011;27765;51.228;7.626;2022-08-03T04:43:25;8.50;;;3.70;;
42108;SDS011;27765;51.228;7.626;2022-08-03T04:46:13;13.18;;;4.00;;
42108;SDS011;27765;51.228;7.626;2022-08-03T04:49:00;7.97;;;4.45;;
42108;SDS011;27765;51.228;7.626;2022-08-03T04:51:47;12.05;;;4.70;;
42108;SDS011;27765;51.228;7.626;2022-08-03T04:54:41;11.80;;;5.20;;
42108;SDS011;27765;51.228;7.626;2022-08-03T04:57:28;11.70;;;4.68;;
42108;SDS011;27765;51.228;7.626;2022-08-03T05:00:14;15.00;;;5.82;;
42108;SDS011;27765;51.228;7.626;2022-08-03T05:03:00;11.38;;;5.13;;
42108;SDS011;27765;51.228;7.626;2022-08-03T05:05:26;17.50;;;5.80;;
42108;SDS011;27765;51.228;7.626;2022-08-03T05:07:52;15.77;;;5.78;;
42108;SDS011;27765;51.228;7.626;2022-08-03T05:10:18;24.20;;;6.28;;
42108;SDS011;27765;51.228;7.626;2022-08-03T05:12:44;16.23;;;6.90;;
42108;SDS011;27765;51.228;7.626;2022-08-03T05:15:12;21.17;;;6.10;;
42108;SDS011;27765;51.228;7.626;2022-08-03T05:17:38;20.08;;;8.55;;
42108;SDS011;27765;51.228;7.626;2022-08-03T05:20:04;23.60;;;8.48;;
42108;SDS011;27765;51.228;7.626;2022-08-03T05:22:30;19.48;;;7.47;;
42108;SDS011;27765;51.228;7.626;2022-08-03T05:24:56;26.75;;;8.98;;
42108;SDS011;27765;51.228;7.626;2022-08-03T05:27:22;24.92;;;10.35;;
42108;SDS011;27765;51.228;7.626;2022-08-03T05:29:48;25.25;;;8.52;;
42108;SDS011;27765;51.228;7.626;2022-08-03T05:32:15;24.38;;;8.95;;
42108;SDS011;27765;51.228;7.626;2022-08-03T05:34:41;16.98;;;9.25;;
42108;SDS011;27765;51.228;7.626;2022-08-03T05:37:08;23.42;;;8.85;;
42108;SDS011;27765;51.228;7.626;2022-08-03T05:39:34;17.95;;;7.18;;
42108;SDS011;27765;51.228;7.626;2022-08-03T05:42:01;18.55;;;6.68;;
42108;SDS011;27765;51.228;7.626;2022-08-03T05:44:45;14.63;;;6.22;;
42108;SDS011;27765;51.228;7.626;2022-08-03T05:47:30;15.15;;;5.85;;
42108;SDS011;27765;51.228;7.626;2022-08-03T05:50:16;11.23;;;4.63;;
42108;SDS011;27765;51.228;7.626;2022-08-03T05:52:46;8.45;;;4.82;;
42108;SDS011;27765;51.228;7.626;2022-08-03T05:55:12;8.32;;;3.90;;
42108;SDS011;27765;51.228;7.626;2022-08-03T05:57:39;8.30;;;4.18;;
42108;SDS011;27765;51.228;7.626;2022-08-03T06:00:07;11.13;;;4.45;;
42108;SDS011;27765;51.228;7.626;2022-08-03T06:02:34;12.57;;;4.20;;
42108;SDS011;27765;51.228;7.626;2022-08-03T06:05:00;12.07;;;4.28;;
42108;SDS011;27765;51.228;7.626;2022-08-03T06:07:27;5.90;;;2.88;;
42108;SDS011;27765;51.228;7.626;2022-08-03T06:09:53;8.90;;;2.00;;
42108;SDS011;27765;51.228;7.626;2022-08-03T06:12:19;1.83;;;1.33;;
42108;SDS011;27765;51.228;7.626;2022-08-03T06:14:45;4.72;;;1.90;;
42108;SDS011;27765;51.228;7.626;2022-08-03T06:17:11;4.80;;;2.03;;
42108;SDS011;27765;51.228;7.626;2022-08-03T06:19:37;3.92;;;1.45;;
42108;SDS011;27765;51.228;7.626;2022-08-03T06:22:03;2.65;;;1.10;;
42108;SDS011;27765;51.228;7.626;2022-08-03T06:24:40;3.30;;;1.27;;
42108;SDS011;27765;51.228;7.626;2022-08-03T06:27:06;2.40;;;1.20;;
42108;SDS011;27765;51.228;7.626;2022-08-03T06:29:32;2.90;;;1.35;;
42108;SDS011;27765;51.228;7.626;2022-08-03T06:31:58;2.85;;;1.20;;
42108;SDS011;27765;51.228;7.626;2022-08-03T06:34:24;4.43;;;1.33;;
42108;SDS011;27765;51.228;7.626;2022-08-03T06:36:50;2.05;;;1.20;;
42108;SDS011;27765;51.228;7.626;2022-08-03T06:39:16;2.58;;;1.17;;
42108;SDS011;27765;51.228;7.626;2022-08-03T06:41:43;2.65;;;1.05;;
42108;SDS011;27765;51.228;7.626;2022-08-03T06:44:09;3.03;;;1.35;;
42108;SDS011;27765;51.228;7.626;2022-08-03T06:46:36;5.63;;;1.20;;
42108;SDS011;27765;51.228;7.626;2022-08-03T06:49:02;1.25;;;1.15;;
42108;SDS011;27765;51.228;7.626;2022-08-03T06:51:28;2.83;;;1.05;;
42108;SDS011;27765;51.228;7.626;2022-08-03T06:53:54;1.60;;;1.00;;
42108;SDS011;27765;51.228;7.626;2022-08-03T06:56:20;2.90;;;1.08;;
42108;SDS011;27765;51.228;7.626;2022-08-03T06:58:46;3.70;;;1.38;;
42108;SDS011;27765;51.228;7.626;2022-08-03T07:01:12;2.95;;;1.25;;
42108;SDS011;27765;51.228;7.626;2022-08-03T07:03:38;3.10;;;1.10;;
42108;SDS011;27765;51.228;7.626;2022-08-03T07:06:05;3.38;;;1.17;;
42108;SDS011;27765;51.228;7.626;2022-08-03T07:08:31;5.25;;;1.42;;
42108;SDS011;27765;51.228;7.626;2022-08-03T07:10:57;1.38;;;1.13;;
42108;SDS011;27765;51.228;7.626;2022-08-03T07:13:23;5.18;;;1.70;;
42108;SDS011;27765;51.228;7.626;2022-08-03T07:15:49;2.70;;;1.20;;
42108;SDS011;27765;51.228;7.626;2022-08-03T07:18:15;3.17;;;1.30;;
42108;SDS011;27765;51.228;7.626;2022-08-03T07:20:41;1.67;;;1.15;;
42108;SDS011;27765;51.228;7.626;2022-08-03T07:23:08;2.47;;;1.33;;
42108;SDS011;27765;51.228;7.626;2022-08-03T07:25:34;2.72;;;1.17;;
42108;SDS011;27765;51.228;7.626;2022-08-03T07:28:00;2.47;;;1.20;;
42108;SDS011;27765;51.228;7.626;2022-08-03T07:30:26;6.78;;;1.30;;
42108;SDS011;27765;51.228;7.626;2022-08-03T07:32:53;1.77;;;1.40;;
42108;SDS011;27765;51.228;7.626;2022-08-03T07:35:19;4.72;;;1.33;;
42108;SDS011;27765;51.228;7.626;2022-08-03T07:37:47;2.67;;;1.10;;
42108;SDS011;27765;51.228;7.626;2022-08-03T07:40:12;1.48;;;1.10;;
42108;SDS011;27765;51.228;7.626;2022-08-03T07:42:38;1.20;;;1.10;;
42108;SDS011;27765;51.228;7.626;2022-08-03T07:45:04;2.47;;;1.40;;
42108;SDS011;27765;51.228;7.626;2022-08-03T07:47:32;1.38;;;1.10;;
42108;SDS011;27765;51.228;7.626;2022-08-03T07:49:59;1.90;;;0.95;;
42108;SDS011;27765;51.228;7.626;2022-08-03T07:52:25;2.10;;;0.80;;
42108;SDS011;27765;51.228;7.626;2022-08-03T07:55:10;1.38;;;1.20;;
42108;SDS011;27765;51.228;7.626;2022-08-03T07:57:36;2.55;;;0.95;;
42108;SDS011;27765;51.228;7.626;2022-08-03T08:00:03;2.33;;;1.00;;
42108;SDS011;27765;51.228;7.626;2022-08-03T08:02:31;1.42;;;0.95;;
42108;SDS011;27765;51.228;7.626;2022-08-03T08:04:57;2.53;;;1.33;;
42108;SDS011;27765;51.228;7.626;2022-08-03T08:07:23;1.20;;;1.10;;
42108;SDS011;27765;51.228;7.626;2022-08-03T08:09:50;2.85;;;0.90;;
42108;SDS011;27765;51.228;7.626;2022-08-03T08:12:16;3.50;;;1.10;;
42108;SDS011;27765;51.228;7.626;2022-08-03T08:14:42;1.23;;;0.90;;
42108;SDS011;27765;51.228;7.626;2022-08-03T08:17:11;2.08;;;0.70;;
42108;SDS011;27765;51.228;7.626;2022-08-03T08:19:37;1.95;;;0.98;;
42108;SDS011;27765;51.228;7.626;2022-08-03T08:22:03;2.00;;;1.00;;
42108;SDS011;27765;51.228;7.626;2022-08-03T08:24:30;1.60;;;1.02;;
42108;SDS011;27765;51.228;7.626;2022-08-03T08:26:58;1.58;;;1.08;;
42108;SDS011;27765;51.228;7.626;2022-08-03T08:29:25;3.67;;;1.15;;
42108;SDS011;27765;51.228;7.626;2022-08-03T08:31:51;5.28;;;1.50;;
42108;SDS011;27765;51.228;7.626;2022-08-03T08:34:17;1.23;;;1.10;;
42108;SDS011;27765;51.228;7.626;2022-08-03T08:36:43;3.63;;;0.82;;
42108;SDS011;27765;51.228;7.626;2022-08-03T08:39:12;2.58;;;0.90;;
42108;SDS011;27765;51.228;7.626;2022-08-03T08:41:38;3.65;;;1.38;;
42108;SDS011;27765;51.228;7.626;2022-08-03T08:44:04;1.45;;;0.82;;
42108;SDS011;27765;51.228;7.626;2022-08-03T08:46:32;4.15;;;1.23;;
42108;SDS011;27765;51.228;7.626;2022-08-03T08:48:58;1.63;;;0.80;;
42108;SDS011;27765;51.228;7.626;2022-08-03T08:51:31;1.65;;;1.00;;
42108;SDS011;27765;51.228;7.626;2022-08-03T08:54:02;2.90;;;0.70;;
42108;SDS011;27765;51.228;7.626;2022-08-03T08:56:32;2.08;;;1.45;;
42108;SDS011;27765;51.228;7.626;2022-08-03T08:59:00;1.67;;;1.13;;
42108;SDS011;27765;51.228;7.626;2022-08-03T09:01:27;2.90;;;1.08;;
42108;SDS011;27765;51.228;7.626;2022-08-03T09:03:53;1.83;;;1.08;;
42108;SDS011;27765;51.228;7.626;2022-08-03T09:06:20;2.30;;;0.95;;
42108;SDS011;27765;51.228;7.626;2022-08-03T09:08:46;2.10;;;1.20;;
42108;SDS011;27765;51.228;7.626;2022-08-03T09:11:12;2.70;;;1.00;;
42108;SDS011;27765;51.228;7.626;2022-08-03T09:13:38;1.35;;;1.25;;
42108;SDS011;27765;51.228;7.626;2022-08-03T09:16:20;2.70;;;1.20;;
42108;SDS011;27765;51.228;7.626;2022-08-03T09:18:50;1.70;;;1.10;;
42108;SDS011;27765;51.228;7.626;2022-08-03T09:21:24;2.55;;;1.00;;
42108;SDS011;27765;51.228;7.626;2022-08-03T09:23:53;4.07;;;1.40;;
42108;SDS011;27765;51.228;7.626;2022-08-03T09:29:08;5.03;;;1.02;;
42108;SDS011;27765;51.228;7.626;2022-08-03T09:31:35;1.40;;;1.10;;
42108;SDS011;27765;51.228;7.626;2022-08-03T09:34:07;3.95;;;1.30;;
42108;SDS011;27765;51.228;7.626;2022-08-03T09:39:04;2.53;;;1.02;;
42108;SDS011;27765;51.228;7.626;2022-08-03T09:41:32;3.28;;;0.90;;
42108;SDS011;27765;51.228;7.626;2022-08-03T09:43:58;1.27;;;1.17;;
42108;SDS011;27765;51.228;7.626;2022-08-03T09:46:24;3.42;;;1.17;;
42108;SDS011;27765;51.228;7.626;2022-08-03T09:48:50;2.03;;;0.88;;
42108;SDS011;27765;51.228;7.626;2022-08-03T09:51:16;2.00;;;1.20;;
42108;SDS011;27765;51.228;7.626;2022-08-03T09:53:49;2.58;;;1.00;;
42108;SDS011;27765;51.228;7.626;2022-08-03T09:56:15;2.72;;;1.23;;
42108;SDS011;27765;51.228;7.626;2022-08-03T09:58:45;4.43;;;1.25;;
42108;SDS011;27765;51.228;7.626;2022-08-03T10:01:11;3.83;;;1.10;;
42108;SDS011;27765;51.228;7.626;2022-08-03T10:03:38;2.75;;;1.27;;
42108;SDS011;27765;51.228;7.626;2022-08-03T10:06:14;1.63;;;1.30;;
42108;SDS011;27765;51.228;7.626;2022-08-03T10:08:46;3.30;;;1.48;;
42108;SDS011;27765;51.228;7.626;2022-08-03T10:11:31;3.22;;;1.17;;
42108;SDS011;27765;51.228;7.626;2022-08-03T10:14:03;3.35;;;1.23;;
42108;SDS011;27765;51.228;7.626;2022-08-03T10:16:36;1.05;;;0.93;;
42108;SDS011;27765;51.228;7.626;2022-08-03T10:19:05;3.65;;;1.30;;
42108;SDS011;27765;51.228;7.626;2022-08-03T10:21:33;4.07;;;0.90;;
42108;SDS011;27765;51.228;7.626;2022-08-03T10:24:02;1.65;;;1.20;;
42108;SDS011;27765;51.228;7.626;2022-08-03T10:26:31;3.63;;;1.00;;
42108;SDS011;27765;51.228;7.626;2022-08-03T10:28:59;2.17;;;0.77;;
42108;SDS011;27765;51.228;7.626;2022-08-03T10:31:33;2.35;;;0.98;;
42108;SDS011;27765;51.228;7.626;2022-08-03T10:34:04;1.58;;;1.17;;
42108;SDS011;27765;51.228;7.626;2022-08-03T10:36:36;1.17;;;0.98;;
42108;SDS011;27765;51.228;7.626;2022-08-03T10:39:21;3.53;;;1.00;;
42108;SDS011;27765;51.228;7.626;2022-08-03T10:41:48;6.70;;;1.20;;
42108;SDS011;27765;51.228;7.626;2022-08-03T10:44:19;1.20;;;1.00;;
42108;SDS011;27765;51.228;7.626;2022-08-03T10:46:48;3.13;;;1.35;;
42108;SDS011;27765;51.228;7.626;2022-08-03T10:49:19;1.75;;;1.00;;
42108;SDS011;27765;51.228;7.626;2022-08-03T10:51:46;1.77;;;1.17;;
42108;SDS011;27765;51.228;7.626;2022-08-03T10:57:41;3.30;;;1.00;;
42108;SDS011;27765;51.228;7.626;2022-08-03T11:00:12;5.55;;;1.30;;
42108;SDS011;27765;51.228;7.626;2022-08-03T11:05:27;4.22;;;1.25;;
42108;SDS011;27765;51.228;7.626;2022-08-03T11:08:32;1.77;;;0.85;;
42108;SDS011;27765;51.228;7.626;2022-08-03T11:11:47;2.67;;;1.00;;
42108;SDS011;27765;51.228;7.626;2022-08-03T11:16:23;2.55;;;0.95;;
42108;SDS011;27765;51.228;7.626;2022-08-03T11:18:58;4.78;;;1.15;;
42108;SDS011;27765;51.228;7.626;2022-08-03T11:30:03;1.27;;;0.70;;
42108;SDS011;27765;51.228;7.626;2022-08-03T11:32:56;3.65;;;1.10;;
42108;SDS011;27765;51.228;7.626;2022-08-03T11:42:59;2.75;;;0.90;;
42108;SDS011;27765;51.228;7.626;2022-08-03T11:45:25;3.10;;;0.90;;
42108;SDS011;27765;51.228;7.626;2022-08-03T11:47:52;3.22;;;1.25;;
42108;SDS011;27765;51.228;7.626;2022-08-03T11:50:19;2.95;;;1.20;;
42108;SDS011;27765;51.228;7.626;2022-08-03T11:52:46;3.15;;;1.30;;
42108;SDS011;27765;51.228;7.626;2022-08-03T11:55:13;1.67;;;1.13;;
42108;SDS011;27765;51.228;7.626;2022-08-03T11:57:40;3.33;;;0.82;;
42108;SDS011;27765;51.228;7.626;2022-08-03T12:03:06;2.30;;;0.80;;
42108;SDS011;27765;51.228;7.626;2022-08-03T12:05:36;2.45;;;1.10;;
42108;SDS011;27765;51.228;7.626;2022-08-03T12:08:04;2.80;;;1.23;;
42108;SDS011;27765;51.228;7.626;2022-08-03T12:10:31;1.58;;;0.90;;
42108;SDS011;27765;51.228;7.626;2022-08-03T12:12:58;3.95;;;1.05;;
42108;SDS011;27765;51.228;7.626;2022-08-03T12:15:25;2.75;;;1.23;;
42108;SDS011;27765;51.228;7.626;2022-08-03T12:17:53;1.20;;;1.00;;
42108;SDS011;27765;51.228;7.626;2022-08-03T12:20:21;2.53;;;1.15;;
42108;SDS011;27765;51.228;7.626;2022-08-03T12:22:51;3.03;;;1.25;;
42108;SDS011;27765;51.228;7.626;2022-08-03T12:25:24;2.00;;;1.00;;
42108;SDS011;27765;51.228;7.626;2022-08-03T12:27:52;3.08;;;1.10;;
42108;SDS011;27765;51.228;7.626;2022-08-03T12:30:30;5.50;;;1.25;;
42108;SDS011;27765;51.228;7.626;2022-08-03T12:32:56;1.63;;;0.88;;
42108;SDS011;27765;51.228;7.626;2022-08-03T12:35:22;3.15;;;1.35;;
42108;SDS011;27765;51.228;7.626;2022-08-03T12:37:49;2.35;;;1.08;;
42108;SDS011;27765;51.228;7.626;2022-08-03T12:40:23;2.65;;;1.10;;
42108;SDS011;27765;51.228;7.626;2022-08-03T12:42:50;2.67;;;1.20;;
42108;SDS011;27765;51.228;7.626;2022-08-03T12:45:27;4.50;;;1.50;;
42108;SDS011;27765;51.228;7.626;2022-08-03T12:47:57;2.95;;;1.40;;
42108;SDS011;27765;51.228;7.626;2022-08-03T12:50:31;2.88;;;1.27;;
42108;SDS011;27765;51.228;7.626;2022-08-03T12:53:00;4.25;;;1.23;;
42108;SDS011;27765;51.228;7.626;2022-08-03T12:55:29;3.03;;;1.20;;
42108;SDS011;27765;51.228;7.626;2022-08-03T12:58:02;2.13;;;1.20;;
42108;SDS011;27765;51.228;7.626;2022-08-03T13:00:29;2.72;;;1.10;;
42108;SDS011;27765;51.228;7.626;2022-08-03T13:02:59;3.45;;;1.00;;
42108;SDS011;27765;51.228;7.626;2022-08-03T13:05:27;3.45;;;1.30;;
42108;SDS011;27765;51.228;7.626;2022-08-03T13:07:54;4.53;;;1.38;;
42108;SDS011;27765;51.228;7.626;2022-08-03T13:10:27;1.05;;;0.88;;
42108;SDS011;27765;51.228;7.626;2022-08-03T13:12:56;2.38;;;0.98;;
42108;SDS011;27765;51.228;7.626;2022-08-03T13:15:25;5.32;;;1.30;;
42108;SDS011;27765;51.228;7.626;2022-08-03T13:17:53;1.77;;;0.90;;
42108;SDS011;27765;51.228;7.626;2022-08-03T13:20:21;4.95;;;1.30;;
42108;SDS011;27765;51.228;7.626;2022-08-03T13:23:14;7.45;;;1.42;;
42108;SDS011;27765;51.228;7.626;2022-08-03T13:25:40;6.90;;;1.23;;
42108;SDS011;27765;51.228;7.626;2022-08-03T13:28:06;2.05;;;1.27;;
42108;SDS011;27765;51.228;7.626;2022-08-03T13:30:32;1.67;;;0.95;;
42108;SDS011;27765;51.228;7.626;2022-08-03T13:32:58;4.72;;;1.65;;
42108;SDS011;27765;51.228;7.626;2022-08-03T13:35:24;4.88;;;1.70;;
42108;SDS011;27765;51.228;7.626;2022-08-03T13:37:50;3.42;;;1.13;;
42108;SDS011;27765;51.228;7.626;2022-08-03T13:40:16;4.18;;;1.17;;
42108;SDS011;27765;51.228;7.626;2022-08-03T13:42:42;3.03;;;1.35;;
42108;SDS011;27765;51.228;7.626;2022-08-03T13:45:08;3.65;;;1.00;;
42108;SDS011;27765;51.228;7.626;2022-08-03T13:47:35;2.45;;;1.10;;
42108;SDS011;27765;51.228;7.626;2022-08-03T13:50:02;1.73;;;1.00;;
42108;SDS011;27765;51.228;7.626;2022-08-03T13:52:29;1.63;;;1.02;;
42108;SDS011;27765;51.228;7.626;2022-08-03T13:54:56;3.67;;;1.30;;
42108;SDS011;27765;51.228;7.626;2022-08-03T13:57:23;7.50;;;1.58;;
42108;SDS011;27765;51.228;7.626;2022-08-03T13:59:49;3.83;;;1.48;;
42108;SDS011;27765;51.228;7.626;2022-08-03T14:02:15;7.07;;;1.20;;
42108;SDS011;27765;51.228;7.626;2022-08-03T14:04:50;4.10;;;0.90;;
42108;SDS011;27765;51.228;7.626;2022-08-03T14:07:16;3.22;;;1.23;;
42108;SDS011;27765;51.228;7.626;2022-08-03T14:09:42;2.20;;;1.10;;
42108;SDS011;27765;51.228;7.626;2022-08-03T14:12:08;2.72;;;1.13;;
42108;SDS011;27765;51.228;7.626;2022-08-03T14:14:37;6.10;;;1.10;;
42108;SDS011;27765;51.228;7.626;2022-08-03T14:17:03;4.10;;;1.70;;
42108;SDS011;27765;51.228;7.626;2022-08-03T14:19:29;5.63;;;1.65;;
42108;SDS011;27765;51.228;7.626;2022-08-03T14:21:55;5.28;;;1.20;;
42108;SDS011;27765;51.228;7.626;2022-08-03T14:24:22;5.20;;;1.40;;
42108;SDS011;27765;51.228;7.626;2022-08-03T14:26:47;3.30;;;1.05;;
42108;SDS011;27765;51.228;7.626;2022-08-03T14:29:14;3.17;;;1.23;;
42108;SDS011;27765;51.228;7.626;2022-08-03T14:31:39;4.93;;;0.93;;
42108;SDS011;27765;51.228;7.626;2022-08-03T14:34:24;3.85;;;0.90;;
42108;SDS011;27765;51.228;7.626;2022-08-03T14:37:10;2.53;;;1.05;;
42108;SDS011;27765;51.228;7.626;2022-08-03T14:39:54;3.15;;;0.95;;
42108;SDS011;27765;51.228;7.626;2022-08-03T14:42:25;2.95;;;0.80;;
42108;SDS011;27765;51.228;7.626;2022-08-03T14:44:50;2.67;;;1.08;;
42108;SDS011;27765;51.228;7.626;2022-08-03T14:47:16;3.20;;;0.98;;
42108;SDS011;27765;51.228;7.626;2022-08-03T14:49:43;3.50;;;1.02;;
42108;SDS011;27765;51.228;7.626;2022-08-03T14:52:09;2.92;;;0.88;;
42108;SDS011;27765;51.228;7.626;2022-08-03T14:54:35;3.28;;;0.93;;
42108;SDS011;27765;51.228;7.626;2022-08-03T14:57:01;4.30;;;0.93;;
42108;SDS011;27765;51.228;7.626;2022-08-03T14:59:27;4.25;;;0.95;;
42108;SDS011;27765;51.228;7.626;2022-08-03T15:01:53;2.13;;;0.90;;
42108;SDS011;27765;51.228;7.626;2022-08-03T15:04:20;3.30;;;0.80;;
42108;SDS011;27765;51.228;7.626;2022-08-03T15:06:46;2.08;;;1.00;;
42108;SDS011;27765;51.228;7.626;2022-08-03T15:09:12;2.65;;;0.98;;
42108;SDS011;27765;51.228;7.626;2022-08-03T15:11:38;2.03;;;0.80;;
42108;SDS011;27765;51.228;7.626;2022-08-03T15:14:04;4.82;;;0.95;;
42108;SDS011;27765;51.228;7.626;2022-08-03T15:16:31;1.98;;;0.85;;
42108;SDS011;27765;51.228;7.626;2022-08-03T15:18:57;1.58;;;0.90;;
42108;SDS011;27765;51.228;7.626;2022-08-03T15:21:23;3.55;;;0.90;;
42108;SDS011;27765;51.228;7.626;2022-08-03T15:23:49;4.18;;;1.10;;
42108;SDS011;27765;51.228;7.626;2022-08-03T15:26:15;4.35;;;0.80;;
42108;SDS011;27765;51.228;7.626;2022-08-03T15:28:41;2.58;;;0.80;;
42108;SDS011;27765;51.228;7.626;2022-08-03T15:31:07;2.45;;;0.93;;
42108;SDS011;27765;51.228;7.626;2022-08-03T15:33:33;5.65;;;1.00;;
42108;SDS011;27765;51.228;7.626;2022-08-03T15:36:03;4.68;;;1.00;;
42108;SDS011;27765;51.228;7.626;2022-08-03T15:38:29;6.68;;;1.15;;
42108;SDS011;27765;51.228;7.626;2022-08-03T15:40:55;2.58;;;0.80;;
42108;SDS011;27765;51.228;7.626;2022-08-03T15:43:23;4.43;;;0.98;;
42108;SDS011;27765;51.228;7.626;2022-08-03T15:45:49;4.07;;;0.90;;
42108;SDS011;27765;51.228;7.626;2022-08-03T15:48:16;2.58;;;0.68;;
42108;SDS011;27765;51.228;7.626;2022-08-03T15:50:44;3.83;;;0.90;;
42108;SDS011;27765;51.228;7.626;2022-08-03T15:53:28;2.78;;;0.80;;
42108;SDS011;27765;51.228;7.626;2022-08-03T15:55:54;2.47;;;1.00;;
42108;SDS011;27765;51.228;7.626;2022-08-03T15:58:22;2.33;;;0.90;;
42108;SDS011;27765;51.228;7.626;2022-08-03T16:00:48;5.72;;;0.90;;
42108;SDS011;27765;51.228;7.626;2022-08-03T16:03:14;4.85;;;0.98;;
42108;SDS011;27765;51.228;7.626;2022-08-03T16:05:40;5.88;;;1.00;;
42108;SDS011;27765;51.228;7.626;2022-08-03T16:08:06;1.67;;;0.77;;
42108;SDS011;27765;51.228;7.626;2022-08-03T16:10:32;2.90;;;1.00;;
42108;SDS011;27765;51.228;7.626;2022-08-03T16:13:17;2.78;;;0.85;;